sensor_id;sensor_type;location;lat;lon;timestamp;P1;durP1;ratioP1;P2;durP2;ratioP2
43435;SDS011;36399;51.444;-2.018;2022-07-10T00:00:31;2.00;;;0.93;;
43435;SDS011;36399;51.444;-2.018;2022-07-10T00:02:58;2.03;;;0.73;;
43435;SDS011;36399;51.444;-2.018;2022-07-10T00:05:25;2.10;;;0.93;;
43435;SDS011;36399;51.444;-2.018;2022-07-10T00:07:51;1.30;;;1.20;;
43435;SDS011;36399;51.444;-2.018;2022-07-10T00:10:18;1.40;;;0.80;;
43435;SDS011;36399;51.444;-2.018;2022-07-10T00:12:46;3.20;;;1.07;;
43435;SDS011;36399;51.444;-2.018;2022-07-10T00:15:14;1.47;;;0.60;;
43435;SDS011;36399;51.444;-2.018;2022-07-10T00:17:41;2.47;;;1.03;;
43435;SDS011;36399;51.444;-2.018;2022-07-10T00:20:09;2.23;;;1.00;;
43435;SDS011;36399;51.444;-2.018;2022-07-10T00:22:36;2.30;;;0.90;;
43435;SDS011;36399;51.444;-2.018;2022-07-10T00:25:06;2.17;;;0.83;;
43435;SDS011;36399;51.444;-2.018;2022-07-10T00:27:34;1.20;;;0.80;;
43435;SDS011;36399;51.444;-2.018;2022-07-10T00:30:00;2.10;;;0.77;;
43435;SDS011;36399;51.444;-2.018;2022-07-10T00:32:27;1.47;;;0.97;;
43435;SDS011;36399;51.444;-2.018;2022-07-10T00:34:53;1.87;;;1.00;;
43435;SDS011;36399;51.444;-2.018;2022-07-10T00:37:19;2.53;;;0.80;;
43435;SDS011;36399;51.444;-2.018;2022-07-10T00:39:47;3.53;;;0.87;;
43435;SDS011;36399;51.444;-2.018;2022-07-10T00:42:14;2.50;;;0.70;;
43435;SDS011;36399;51.444;-2.018;2022-07-10T00:44:41;1.90;;;0.70;;
43435;SDS011;36399;51.444;-2.018;2022-07-10T00:47:08;1.90;;;1.23;;
43435;SDS011;36399;51.444;-2.018;2022-07-10T00:49:36;2.27;;;0.80;;
43435;SDS011;36399;51.444;-2.018;2022-07-10T00:52:06;2.07;;;0.97;;
43435;SDS011;36399;51.444;-2.018;2022-07-10T00:54:37;1.83;;;0.67;;
43435;SDS011;36399;51.444;-2.018;2022-07-10T00:57:05;2.30;;;0.67;;
43435;SDS011;36399;51.444;-2.018;2022-07-10T00:59:33;1.70;;;0.70;;
43435;SDS011;36399;51.444;-2.018;2022-07-10T01:02:00;2.77;;;1.00;;
43435;SDS011;36399;51.444;-2.018;2022-07-10T01:04:27;1.27;;;0.70;;
43435;SDS011;36399;51.444;-2.018;2022-07-10T01:06:53;3.40;;;0.80;;
43435;SDS011;36399;51.444;-2.018;2022-07-10T01:09:19;2.20;;;0.70;;
43435;SDS011;36399;51.444;-2.018;2022-07-10T01:11:45;2.43;;;0.83;;
43435;SDS011;36399;51.444;-2.018;2022-07-10T01:14:11;2.30;;;0.80;;
43435;SDS011;36399;51.444;-2.018;2022-07-10T01:16:38;1.33;;;0.80;;
43435;SDS011;36399;51.444;-2.018;2022-07-10T01:19:04;1.77;;;0.70;;
43435;SDS011;36399;51.444;-2.018;2022-07-10T01:21:33;1.60;;;0.70;;
43435;SDS011;36399;51.444;-2.018;2022-07-10T01:24:03;1.60;;;1.00;;
43435;SDS011;36399;51.444;-2.018;2022-07-10T01:26:31;2.60;;;1.10;;
43435;SDS011;36399;51.444;-2.018;2022-07-10T01:28:57;2.47;;;0.83;;
43435;SDS011;36399;51.444;-2.018;2022-07-10T01:31:27;0.90;;;0.57;;
43435;SDS011;36399;51.444;-2.018;2022-07-10T01:33:53;2.23;;;0.80;;
43435;SDS011;36399;51.444;-2.018;2022-07-10T01:36:20;1.17;;;0.70;;
43435;SDS011;36399;51.444;-2.018;2022-07-10T01:38:47;2.80;;;1.13;;
43435;SDS011;36399;51.444;-2.018;2022-07-10T01:41:13;1.60;;;0.77;;
43435;SDS011;36399;51.444;-2.018;2022-07-10T01:43:39;1.00;;;0.90;;
43435;SDS011;36399;51.444;-2.018;2022-07-10T01:46:10;3.33;;;1.17;;
43435;SDS011;36399;51.444;-2.018;2022-07-10T01:48:37;2.63;;;0.97;;
43435;SDS011;36399;51.444;-2.018;2022-07-10T01:51:05;1.27;;;0.67;;
43435;SDS011;36399;51.444;-2.018;2022-07-10T01:53:31;3.00;;;1.07;;
43435;SDS011;36399;51.444;-2.018;2022-07-10T01:55:58;3.00;;;1.30;;
43435;SDS011;36399;51.444;-2.018;2022-07-10T01:58:28;1.93;;;1.00;;
43435;SDS011;36399;51.444;-2.018;2022-07-10T02:00:54;2.00;;;0.90;;
43435;SDS011;36399;51.444;-2.018;2022-07-10T02:03:20;2.37;;;1.30;;
43435;SDS011;36399;51.444;-2.018;2022-07-10T02:06:05;1.73;;;0.70;;
43435;SDS011;36399;51.444;-2.018;2022-07-10T02:08:31;2.77;;;1.17;;
43435;SDS011;36399;51.444;-2.018;2022-07-10T02:10:57;2.40;;;1.03;;
43435;SDS011;36399;51.444;-2.018;2022-07-10T02:13:23;2.17;;;1.30;;
43435;SDS011;36399;51.444;-2.018;2022-07-10T02:15:53;3.73;;;1.07;;
43435;SDS011;36399;51.444;-2.018;2022-07-10T02:18:20;2.57;;;1.50;;
43435;SDS011;36399;51.444;-2.018;2022-07-10T02:20:46;2.30;;;1.17;;
43435;SDS011;36399;51.444;-2.018;2022-07-10T02:23:12;4.30;;;1.70;;
43435;SDS011;36399;51.444;-2.018;2022-07-10T02:25:38;2.63;;;1.00;;
43435;SDS011;36399;51.444;-2.018;2022-07-10T02:28:05;2.87;;;1.00;;
43435;SDS011;36399;51.444;-2.018;2022-07-10T02:30:31;2.10;;;0.90;;
43435;SDS011;36399;51.444;-2.018;2022-07-10T02:32:57;2.63;;;1.17;;
43435;SDS011;36399;51.444;-2.018;2022-07-10T02:35:23;4.33;;;1.20;;
43435;SDS011;36399;51.444;-2.018;2022-07-10T02:37:49;3.07;;;1.10;;
43435;SDS011;36399;51.444;-2.018;2022-07-10T02:40:15;3.60;;;1.47;;
43435;SDS011;36399;51.444;-2.018;2022-07-10T02:42:41;2.20;;;1.17;;
43435;SDS011;36399;51.444;-2.018;2022-07-10T02:45:07;3.90;;;1.17;;
43435;SDS011;36399;51.444;-2.018;2022-07-10T02:47:33;2.73;;;1.07;;
43435;SDS011;36399;51.444;-2.018;2022-07-10T02:50:00;2.23;;;1.00;;
43435;SDS011;36399;51.444;-2.018;2022-07-10T02:52:26;2.10;;;1.33;;
43435;SDS011;36399;51.444;-2.018;2022-07-10T02:54:52;2.00;;;1.40;;
43435;SDS011;36399;51.444;-2.018;2022-07-10T02:57:18;3.07;;;1.20;;
43435;SDS011;36399;51.444;-2.018;2022-07-10T02:59:44;3.20;;;1.37;;
43435;SDS011;36399;51.444;-2.018;2022-07-10T03:02:10;4.53;;;1.30;;
43435;SDS011;36399;51.444;-2.018;2022-07-10T03:04:36;2.77;;;1.30;;
43435;SDS011;36399;51.444;-2.018;2022-07-10T03:07:03;3.00;;;1.10;;
43435;SDS011;36399;51.444;-2.018;2022-07-10T03:09:29;3.47;;;1.20;;
43435;SDS011;36399;51.444;-2.018;2022-07-10T03:11:55;2.93;;;1.20;;
43435;SDS011;36399;51.444;-2.018;2022-07-10T03:14:21;3.50;;;1.33;;
43435;SDS011;36399;51.444;-2.018;2022-07-10T03:16:47;2.03;;;1.00;;
43435;SDS011;36399;51.444;-2.018;2022-07-10T03:19:13;2.60;;;1.23;;
43435;SDS011;36399;51.444;-2.018;2022-07-10T03:21:39;3.00;;;1.83;;
43435;SDS011;36399;51.444;-2.018;2022-07-10T03:24:05;2.90;;;1.43;;
43435;SDS011;36399;51.444;-2.018;2022-07-10T03:26:31;2.13;;;1.00;;
43435;SDS011;36399;51.444;-2.018;2022-07-10T03:28:57;3.73;;;1.20;;
43435;SDS011;36399;51.444;-2.018;2022-07-10T03:31:23;3.27;;;1.37;;
43435;SDS011;36399;51.444;-2.018;2022-07-10T03:33:49;2.33;;;1.20;;
43435;SDS011;36399;51.444;-2.018;2022-07-10T03:36:18;3.57;;;2.07;;
43435;SDS011;36399;51.444;-2.018;2022-07-10T03:38:44;2.17;;;1.20;;
43435;SDS011;36399;51.444;-2.018;2022-07-10T03:41:12;4.80;;;1.73;;
43435;SDS011;36399;51.444;-2.018;2022-07-10T03:43:39;3.93;;;1.37;;
43435;SDS011;36399;51.444;-2.018;2022-07-10T03:46:05;3.10;;;1.23;;
43435;SDS011;36399;51.444;-2.018;2022-07-10T03:48:32;2.50;;;1.13;;
43435;SDS011;36399;51.444;-2.018;2022-07-10T03:50:59;2.47;;;1.10;;
43435;SDS011;36399;51.444;-2.018;2022-07-10T03:53:25;3.07;;;1.50;;
43435;SDS011;36399;51.444;-2.018;2022-07-10T03:55:51;3.37;;;1.53;;
43435;SDS011;36399;51.444;-2.018;2022-07-10T03:58:17;2.43;;;1.10;;
43435;SDS011;36399;51.444;-2.018;2022-07-10T04:00:43;2.43;;;1.23;;
43435;SDS011;36399;51.444;-2.018;2022-07-10T04:03:09;3.60;;;1.50;;
43435;SDS011;36399;51.444;-2.018;2022-07-10T04:05:35;2.67;;;1.50;;
43435;SDS011;36399;51.444;-2.018;2022-07-10T04:08:02;3.13;;;1.40;;
43435;SDS011;36399;51.444;-2.018;2022-07-10T04:10:29;2.77;;;1.60;;
43435;SDS011;36399;51.444;-2.018;2022-07-10T04:12:56;4.20;;;1.70;;
43435;SDS011;36399;51.444;-2.018;2022-07-10T04:15:23;3.67;;;1.40;;
43435;SDS011;36399;51.444;-2.018;2022-07-10T04:17:50;4.73;;;1.63;;
43435;SDS011;36399;51.444;-2.018;2022-07-10T04:20:16;4.63;;;1.67;;
43435;SDS011;36399;51.444;-2.018;2022-07-10T04:22:43;3.43;;;1.43;;
43435;SDS011;36399;51.444;-2.018;2022-07-10T04:25:10;3.03;;;1.30;;
43435;SDS011;36399;51.444;-2.018;2022-07-10T04:27:36;2.80;;;1.87;;
43435;SDS011;36399;51.444;-2.018;2022-07-10T04:30:03;3.43;;;1.83;;
43435;SDS011;36399;51.444;-2.018;2022-07-10T04:32:29;2.00;;;1.17;;
43435;SDS011;36399;51.444;-2.018;2022-07-10T04:34:55;3.07;;;1.70;;
43435;SDS011;36399;51.444;-2.018;2022-07-10T04:37:21;4.80;;;1.50;;
43435;SDS011;36399;51.444;-2.018;2022-07-10T04:39:48;2.77;;;1.13;;
43435;SDS011;36399;51.444;-2.018;2022-07-10T04:42:14;2.60;;;1.57;;
43435;SDS011;36399;51.444;-2.018;2022-07-10T04:44:40;3.17;;;1.43;;
43435;SDS011;36399;51.444;-2.018;2022-07-10T04:47:06;2.97;;;1.40;;
43435;SDS011;36399;51.444;-2.018;2022-07-10T04:49:32;2.80;;;1.40;;
43435;SDS011;36399;51.444;-2.018;2022-07-10T04:51:59;3.40;;;1.63;;
43435;SDS011;36399;51.444;-2.018;2022-07-10T04:54:25;2.67;;;1.40;;
43435;SDS011;36399;51.444;-2.018;2022-07-10T04:56:51;2.10;;;1.20;;
43435;SDS011;36399;51.444;-2.018;2022-07-10T04:59:17;3.10;;;1.80;;
43435;SDS011;36399;51.444;-2.018;2022-07-10T05:01:43;2.60;;;1.43;;
43435;SDS011;36399;51.444;-2.018;2022-07-10T05:04:12;4.37;;;1.70;;
43435;SDS011;36399;51.444;-2.018;2022-07-10T05:06:38;2.80;;;1.30;;
43435;SDS011;36399;51.444;-2.018;2022-07-10T05:09:04;3.30;;;1.77;;
43435;SDS011;36399;51.444;-2.018;2022-07-10T05:11:31;3.07;;;1.57;;
43435;SDS011;36399;51.444;-2.018;2022-07-10T05:13:57;4.17;;;1.87;;
43435;SDS011;36399;51.444;-2.018;2022-07-10T05:16:23;4.17;;;1.47;;
43435;SDS011;36399;51.444;-2.018;2022-07-10T05:18:49;3.77;;;1.77;;
43435;SDS011;36399;51.444;-2.018;2022-07-10T05:21:15;4.00;;;1.93;;
43435;SDS011;36399;51.444;-2.018;2022-07-10T05:23:42;2.80;;;1.70;;
43435;SDS011;36399;51.444;-2.018;2022-07-10T05:26:08;4.67;;;2.13;;
43435;SDS011;36399;51.444;-2.018;2022-07-10T05:28:34;3.67;;;1.70;;
43435;SDS011;36399;51.444;-2.018;2022-07-10T05:31:00;3.97;;;1.80;;
43435;SDS011;36399;51.444;-2.018;2022-07-10T05:33:26;2.47;;;1.40;;
43435;SDS011;36399;51.444;-2.018;2022-07-10T05:35:53;3.73;;;1.57;;
43435;SDS011;36399;51.444;-2.018;2022-07-10T05:38:20;4.67;;;2.03;;
43435;SDS011;36399;51.444;-2.018;2022-07-10T05:40:46;5.00;;;2.70;;
43435;SDS011;36399;51.444;-2.018;2022-07-10T05:43:12;3.37;;;1.97;;
43435;SDS011;36399;51.444;-2.018;2022-07-10T05:45:38;4.67;;;2.00;;
43435;SDS011;36399;51.444;-2.018;2022-07-10T05:48:04;3.93;;;2.00;;
43435;SDS011;36399;51.444;-2.018;2022-07-10T05:50:30;4.00;;;1.80;;
43435;SDS011;36399;51.444;-2.018;2022-07-10T05:52:57;5.97;;;2.40;;
43435;SDS011;36399;51.444;-2.018;2022-07-10T05:55:23;4.90;;;2.03;;
43435;SDS011;36399;51.444;-2.018;2022-07-10T05:57:49;4.77;;;2.00;;
43435;SDS011;36399;51.444;-2.018;2022-07-10T06:00:16;3.93;;;1.90;;
43435;SDS011;36399;51.444;-2.018;2022-07-10T06:02:42;3.90;;;1.97;;
43435;SDS011;36399;51.444;-2.018;2022-07-10T06:05:08;4.90;;;2.67;;
43435;SDS011;36399;51.444;-2.018;2022-07-10T06:07:35;5.17;;;2.53;;
43435;SDS011;36399;51.444;-2.018;2022-07-10T06:10:01;5.30;;;2.67;;
43435;SDS011;36399;51.444;-2.018;2022-07-10T06:12:28;4.07;;;2.47;;
43435;SDS011;36399;51.444;-2.018;2022-07-10T06:14:55;4.67;;;2.83;;
43435;SDS011;36399;51.444;-2.018;2022-07-10T06:17:21;4.90;;;3.07;;
43435;SDS011;36399;51.444;-2.018;2022-07-10T06:19:47;5.40;;;2.90;;
43435;SDS011;36399;51.444;-2.018;2022-07-10T06:22:13;5.43;;;3.13;;
43435;SDS011;36399;51.444;-2.018;2022-07-10T06:24:57;4.53;;;2.73;;
43435;SDS011;36399;51.444;-2.018;2022-07-10T06:27:25;6.87;;;2.87;;
43435;SDS011;36399;51.444;-2.018;2022-07-10T06:29:51;5.27;;;3.07;;
43435;SDS011;36399;51.444;-2.018;2022-07-10T06:32:17;6.37;;;3.10;;
43435;SDS011;36399;51.444;-2.018;2022-07-10T06:34:43;7.93;;;3.97;;
43435;SDS011;36399;51.444;-2.018;2022-07-10T06:37:09;7.80;;;4.70;;
43435;SDS011;36399;51.444;-2.018;2022-07-10T06:39:35;9.03;;;4.63;;
43435;SDS011;36399;51.444;-2.018;2022-07-10T06:42:02;7.37;;;4.53;;
43435;SDS011;36399;51.444;-2.018;2022-07-10T06:44:29;7.97;;;4.57;;
43435;SDS011;36399;51.444;-2.018;2022-07-10T06:46:55;9.10;;;4.63;;
43435;SDS011;36399;51.444;-2.018;2022-07-10T06:49:42;8.43;;;4.33;;
43435;SDS011;36399;51.444;-2.018;2022-07-10T06:52:09;8.43;;;5.07;;
43435;SDS011;36399;51.444;-2.018;2022-07-10T06:54:35;7.17;;;4.30;;
43435;SDS011;36399;51.444;-2.018;2022-07-10T06:57:01;9.67;;;5.23;;
43435;SDS011;36399;51.444;-2.018;2022-07-10T06:59:27;9.03;;;4.80;;
43435;SDS011;36399;51.444;-2.018;2022-07-10T07:01:54;11.77;;;5.87;;
43435;SDS011;36399;51.444;-2.018;2022-07-10T07:04:20;8.00;;;5.00;;
43435;SDS011;36399;51.444;-2.018;2022-07-10T07:06:45;8.50;;;4.53;;
43435;SDS011;36399;51.444;-2.018;2022-07-10T07:09:11;7.23;;;4.50;;
43435;SDS011;36399;51.444;-2.018;2022-07-10T07:11:38;8.67;;;4.97;;
43435;SDS011;36399;51.444;-2.018;2022-07-10T07:14:04;8.53;;;4.63;;
43435;SDS011;36399;51.444;-2.018;2022-07-10T07:16:30;6.97;;;4.20;;
43435;SDS011;36399;51.444;-2.018;2022-07-10T07:19:10;7.37;;;3.93;;
43435;SDS011;36399;51.444;-2.018;2022-07-10T07:21:43;8.23;;;5.33;;
43435;SDS011;36399;51.444;-2.018;2022-07-10T07:24:28;7.27;;;4.30;;
43435;SDS011;36399;51.444;-2.018;2022-07-10T07:26:54;10.30;;;5.43;;
43435;SDS011;36399;51.444;-2.018;2022-07-10T07:29:20;7.37;;;4.83;;
43435;SDS011;36399;51.444;-2.018;2022-07-10T07:31:46;8.83;;;5.43;;
43435;SDS011;36399;51.444;-2.018;2022-07-10T07:34:12;8.13;;;4.87;;
43435;SDS011;36399;51.444;-2.018;2022-07-10T07:36:38;7.23;;;4.90;;
43435;SDS011;36399;51.444;-2.018;2022-07-10T07:39:04;7.17;;;4.67;;
43435;SDS011;36399;51.444;-2.018;2022-07-10T07:41:30;8.10;;;4.40;;
43435;SDS011;36399;51.444;-2.018;2022-07-10T07:43:56;9.37;;;4.93;;
43435;SDS011;36399;51.444;-2.018;2022-07-10T07:46:23;9.90;;;5.63;;
43435;SDS011;36399;51.444;-2.018;2022-07-10T07:48:50;8.93;;;5.43;;
43435;SDS011;36399;51.444;-2.018;2022-07-10T07:51:16;7.63;;;3.77;;
43435;SDS011;36399;51.444;-2.018;2022-07-10T07:53:42;6.93;;;4.33;;
43435;SDS011;36399;51.444;-2.018;2022-07-10T07:56:08;7.20;;;4.10;;
43435;SDS011;36399;51.444;-2.018;2022-07-10T07:58:34;7.40;;;4.83;;
43435;SDS011;36399;51.444;-2.018;2022-07-10T08:01:00;8.73;;;4.20;;
43435;SDS011;36399;51.444;-2.018;2022-07-10T08:03:26;6.07;;;4.13;;
43435;SDS011;36399;51.444;-2.018;2022-07-10T08:05:52;7.30;;;4.17;;
43435;SDS011;36399;51.444;-2.018;2022-07-10T08:08:18;7.77;;;4.10;;
43435;SDS011;36399;51.444;-2.018;2022-07-10T08:10:44;5.60;;;3.77;;
43435;SDS011;36399;51.444;-2.018;2022-07-10T08:13:10;5.70;;;3.90;;
43435;SDS011;36399;51.444;-2.018;2022-07-10T08:15:37;6.03;;;3.67;;
43435;SDS011;36399;51.444;-2.018;2022-07-10T08:18:07;5.87;;;3.37;;
43435;SDS011;36399;51.444;-2.018;2022-07-10T08:20:33;5.60;;;3.33;;
43435;SDS011;36399;51.444;-2.018;2022-07-10T08:22:59;5.10;;;3.33;;
43435;SDS011;36399;51.444;-2.018;2022-07-10T08:25:25;5.97;;;3.83;;
43435;SDS011;36399;51.444;-2.018;2022-07-10T08:27:52;5.10;;;3.17;;
43435;SDS011;36399;51.444;-2.018;2022-07-10T08:30:18;6.27;;;3.23;;
43435;SDS011;36399;51.444;-2.018;2022-07-10T08:32:44;5.87;;;3.03;;
43435;SDS011;36399;51.444;-2.018;2022-07-10T08:35:10;4.37;;;2.73;;
43435;SDS011;36399;51.444;-2.018;2022-07-10T08:37:41;5.37;;;2.73;;
43435;SDS011;36399;51.444;-2.018;2022-07-10T08:40:08;5.77;;;3.00;;
43435;SDS011;36399;51.444;-2.018;2022-07-10T08:42:36;6.47;;;3.27;;
43435;SDS011;36399;51.444;-2.018;2022-07-10T08:45:02;4.90;;;2.87;;
43435;SDS011;36399;51.444;-2.018;2022-07-10T08:47:28;5.10;;;2.80;;
43435;SDS011;36399;51.444;-2.018;2022-07-10T08:49:56;7.07;;;3.40;;
43435;SDS011;36399;51.444;-2.018;2022-07-10T08:52:26;5.40;;;3.10;;
43435;SDS011;36399;51.444;-2.018;2022-07-10T08:55:08;4.67;;;2.70;;
43435;SDS011;36399;51.444;-2.018;2022-07-10T08:57:39;5.22;;;3.20;;
43435;SDS011;36399;51.444;-2.018;2022-07-10T09:00:08;6.88;;;3.03;;
43435;SDS011;36399;51.444;-2.018;2022-07-10T09:02:35;4.75;;;3.00;;
43435;SDS011;36399;51.444;-2.018;2022-07-10T09:05:01;6.53;;;4.10;;
43435;SDS011;36399;51.444;-2.018;2022-07-10T09:07:36;6.10;;;3.57;;
43435;SDS011;36399;51.444;-2.018;2022-07-10T09:10:06;5.65;;;3.47;;
43435;SDS011;36399;51.444;-2.018;2022-07-10T09:15:32;5.70;;;3.00;;
43435;SDS011;36399;51.444;-2.018;2022-07-10T09:17:59;6.97;;;3.47;;
43435;SDS011;36399;51.444;-2.018;2022-07-10T09:20:35;4.95;;;3.70;;
43435;SDS011;36399;51.444;-2.018;2022-07-10T09:23:20;5.05;;;3.17;;
43435;SDS011;36399;51.444;-2.018;2022-07-10T09:25:49;4.55;;;2.83;;
43435;SDS011;36399;51.444;-2.018;2022-07-10T09:28:17;6.18;;;3.53;;
43435;SDS011;36399;51.444;-2.018;2022-07-10T09:30:44;5.30;;;3.38;;
43435;SDS011;36399;51.444;-2.018;2022-07-10T09:33:45;5.45;;;2.88;;
43435;SDS011;36399;51.444;-2.018;2022-07-10T09:36:09;4.90;;;2.72;;
43435;SDS011;36399;51.444;-2.018;2022-07-10T09:41:11;5.38;;;3.40;;
43435;SDS011;36399;51.444;-2.018;2022-07-10T09:43:46;7.38;;;4.05;;
43435;SDS011;36399;51.444;-2.018;2022-07-10T09:46:15;6.03;;;3.15;;
43435;SDS011;36399;51.444;-2.018;2022-07-10T09:48:42;5.68;;;3.47;;
43435;SDS011;36399;51.444;-2.018;2022-07-10T09:51:09;5.20;;;3.33;;
43435;SDS011;36399;51.444;-2.018;2022-07-10T09:53:43;5.03;;;2.85;;
43435;SDS011;36399;51.444;-2.018;2022-07-10T09:56:10;5.03;;;2.90;;
43435;SDS011;36399;51.444;-2.018;2022-07-10T09:58:38;4.38;;;2.17;;
43435;SDS011;36399;51.444;-2.018;2022-07-10T10:01:05;5.57;;;2.35;;
43435;SDS011;36399;51.444;-2.018;2022-07-10T10:03:36;3.30;;;2.03;;
43435;SDS011;36399;51.444;-2.018;2022-07-10T10:11:41;3.75;;;2.38;;
43435;SDS011;36399;51.444;-2.018;2022-07-10T10:14:10;4.25;;;1.70;;
43435;SDS011;36399;51.444;-2.018;2022-07-10T10:16:43;3.40;;;1.83;;
43435;SDS011;36399;51.444;-2.018;2022-07-10T10:21:56;3.38;;;1.80;;
43435;SDS011;36399;51.444;-2.018;2022-07-10T10:24:23;2.13;;;1.23;;
43435;SDS011;36399;51.444;-2.018;2022-07-10T10:26:51;2.70;;;0.95;;
43435;SDS011;36399;51.444;-2.018;2022-07-10T10:29:18;1.85;;;1.20;;
43435;SDS011;36399;51.444;-2.018;2022-07-10T10:31:44;2.35;;;1.27;;
43435;SDS011;36399;51.444;-2.018;2022-07-10T10:34:11;1.92;;;1.05;;
43435;SDS011;36399;51.444;-2.018;2022-07-10T10:39:11;2.13;;;1.20;;
43435;SDS011;36399;51.444;-2.018;2022-07-10T10:49:16;2.17;;;1.27;;
43435;SDS011;36399;51.444;-2.018;2022-07-10T10:52:07;3.10;;;1.60;;
43435;SDS011;36399;51.444;-2.018;2022-07-10T10:57:23;2.97;;;1.00;;
43435;SDS011;36399;51.444;-2.018;2022-07-10T11:00:03;3.08;;;1.05;;
43435;SDS011;36399;51.444;-2.018;2022-07-10T11:02:35;1.95;;;0.80;;
43435;SDS011;36399;51.444;-2.018;2022-07-10T11:10:34;1.83;;;0.70;;
43435;SDS011;36399;51.444;-2.018;2022-07-10T11:15:32;2.47;;;1.48;;
43435;SDS011;36399;51.444;-2.018;2022-07-10T11:20:44;2.90;;;1.00;;
43435;SDS011;36399;51.444;-2.018;2022-07-10T11:29:21;1.38;;;0.73;;
43435;SDS011;36399;51.444;-2.018;2022-07-10T11:31:53;2.35;;;0.90;;
43435;SDS011;36399;51.444;-2.018;2022-07-10T11:34:21;2.22;;;1.10;;
43435;SDS011;36399;51.444;-2.018;2022-07-10T11:36:48;2.30;;;1.20;;
43435;SDS011;36399;51.444;-2.018;2022-07-10T11:39:14;3.63;;;1.20;;
43435;SDS011;36399;51.444;-2.018;2022-07-10T11:41:44;2.22;;;1.13;;
43435;SDS011;36399;51.444;-2.018;2022-07-10T11:44:19;3.22;;;1.17;;
43435;SDS011;36399;51.444;-2.018;2022-07-10T11:46:46;2.33;;;1.20;;
43435;SDS011;36399;51.444;-2.018;2022-07-10T11:49:14;2.70;;;1.40;;
43435;SDS011;36399;51.444;-2.018;2022-07-10T11:51:43;3.03;;;1.55;;
43435;SDS011;36399;51.444;-2.018;2022-07-10T11:54:10;3.25;;;1.33;;
43435;SDS011;36399;51.444;-2.018;2022-07-10T11:59:12;2.72;;;1.63;;
43435;SDS011;36399;51.444;-2.018;2022-07-10T12:04:16;2.92;;;1.00;;
43435;SDS011;36399;51.444;-2.018;2022-07-10T12:06:45;1.90;;;0.98;;
43435;SDS011;36399;51.444;-2.018;2022-07-10T12:09:13;2.28;;;1.40;;
43435;SDS011;36399;51.444;-2.018;2022-07-10T12:11:41;1.98;;;1.20;;
43435;SDS011;36399;51.444;-2.018;2022-07-10T12:16:44;1.70;;;1.02;;
43435;SDS011;36399;51.444;-2.018;2022-07-10T12:19:15;1.27;;;0.80;;
43435;SDS011;36399;51.444;-2.018;2022-07-10T12:24:09;1.95;;;1.20;;
43435;SDS011;36399;51.444;-2.018;2022-07-10T12:26:40;2.03;;;1.00;;
43435;SDS011;36399;51.444;-2.018;2022-07-10T12:31:51;1.95;;;1.00;;
43435;SDS011;36399;51.444;-2.018;2022-07-10T12:34:18;2.20;;;1.25;;
43435;SDS011;36399;51.444;-2.018;2022-07-10T12:36:51;2.40;;;1.10;;
43435;SDS011;36399;51.444;-2.018;2022-07-10T12:39:19;2.45;;;1.05;;
43435;SDS011;36399;51.444;-2.018;2022-07-10T12:41:52;2.00;;;1.10;;
43435;SDS011;36399;51.444;-2.018;2022-07-10T12:47:17;1.90;;;1.10;;
43435;SDS011;36399;51.444;-2.018;2022-07-10T12:52:22;7.95;;;6.75;;
43435;SDS011;36399;51.444;-2.018;2022-07-10T12:55:13;3.38;;;2.00;;
43435;SDS011;36399;51.444;-2.018;2022-07-10T13:00:20;2.28;;;1.15;;
43435;SDS011;36399;51.444;-2.018;2022-07-10T13:03:07;1.83;;;0.80;;
43435;SDS011;36399;51.444;-2.018;2022-07-10T13:08:05;2.33;;;1.00;;
43435;SDS011;36399;51.444;-2.018;2022-07-10T13:10:51;2.97;;;1.00;;
43435;SDS011;36399;51.444;-2.018;2022-07-10T13:13:19;1.95;;;0.85;;
43435;SDS011;36399;51.444;-2.018;2022-07-10T13:15:45;2.53;;;1.10;;
43435;SDS011;36399;51.444;-2.018;2022-07-10T13:18:22;3.50;;;1.20;;
43435;SDS011;36399;51.444;-2.018;2022-07-10T13:20:50;1.38;;;0.68;;
43435;SDS011;36399;51.444;-2.018;2022-07-10T13:23:18;2.28;;;0.70;;
43435;SDS011;36399;51.444;-2.018;2022-07-10T13:25:50;1.48;;;0.70;;
43435;SDS011;36399;51.444;-2.018;2022-07-10T13:28:20;2.00;;;0.93;;
43435;SDS011;36399;51.444;-2.018;2022-07-10T13:30:46;2.47;;;1.60;;
43435;SDS011;36399;51.444;-2.018;2022-07-10T13:33:13;2.15;;;1.08;;
43435;SDS011;36399;51.444;-2.018;2022-07-10T13:35:39;1.35;;;0.52;;
43435;SDS011;36399;51.444;-2.018;2022-07-10T13:38:06;1.40;;;0.70;;
43435;SDS011;36399;51.444;-2.018;2022-07-10T13:40:33;1.58;;;0.82;;
43435;SDS011;36399;51.444;-2.018;2022-07-10T13:43:00;1.70;;;0.85;;
43435;SDS011;36399;51.444;-2.018;2022-07-10T13:45:27;1.25;;;0.52;;
43435;SDS011;36399;51.444;-2.018;2022-07-10T13:48:03;2.08;;;0.60;;
43435;SDS011;36399;51.444;-2.018;2022-07-10T13:50:29;2.13;;;0.70;;
43435;SDS011;36399;51.444;-2.018;2022-07-10T13:52:55;0.95;;;0.70;;
43435;SDS011;36399;51.444;-2.018;2022-07-10T13:55:22;0.93;;;0.52;;
43435;SDS011;36399;51.444;-2.018;2022-07-10T13:57:48;2.72;;;0.80;;
43435;SDS011;36399;51.444;-2.018;2022-07-10T14:00:14;1.83;;;0.70;;
43435;SDS011;36399;51.444;-2.018;2022-07-10T14:02:40;1.38;;;0.75;;
43435;SDS011;36399;51.444;-2.018;2022-07-10T14:05:07;2.03;;;0.80;;
43435;SDS011;36399;51.444;-2.018;2022-07-10T14:07:36;2.08;;;0.60;;
43435;SDS011;36399;51.444;-2.018;2022-07-10T14:10:02;1.10;;;0.50;;
43435;SDS011;36399;51.444;-2.018;2022-07-10T14:12:29;1.52;;;0.60;;
43435;SDS011;36399;51.444;-2.018;2022-07-10T14:14:55;1.52;;;0.70;;
43435;SDS011;36399;51.444;-2.018;2022-07-10T14:17:22;2.42;;;0.50;;
43435;SDS011;36399;51.444;-2.018;2022-07-10T14:19:49;1.45;;;0.70;;
43435;SDS011;36399;51.444;-2.018;2022-07-10T14:22:16;3.65;;;0.88;;
43435;SDS011;36399;51.444;-2.018;2022-07-10T14:24:42;1.70;;;0.80;;
43435;SDS011;36399;51.444;-2.018;2022-07-10T14:27:08;1.40;;;0.70;;
43435;SDS011;36399;51.444;-2.018;2022-07-10T14:29:34;1.85;;;0.80;;
43435;SDS011;36399;51.444;-2.018;2022-07-10T14:32:00;1.65;;;0.82;;
43435;SDS011;36399;51.444;-2.018;2022-07-10T14:34:26;1.42;;;0.60;;
43435;SDS011;36399;51.444;-2.018;2022-07-10T14:36:54;0.85;;;0.60;;
43435;SDS011;36399;51.444;-2.018;2022-07-10T14:39:21;1.95;;;1.00;;
43435;SDS011;36399;51.444;-2.018;2022-07-10T14:41:47;1.80;;;0.80;;
43435;SDS011;36399;51.444;-2.018;2022-07-10T14:44:13;1.10;;;0.40;;
43435;SDS011;36399;51.444;-2.018;2022-07-10T14:46:39;1.35;;;0.60;;
43435;SDS011;36399;51.444;-2.018;2022-07-10T14:49:05;1.83;;;1.00;;
43435;SDS011;36399;51.444;-2.018;2022-07-10T14:51:31;0.85;;;0.52;;
43435;SDS011;36399;51.444;-2.018;2022-07-10T14:53:57;1.55;;;0.90;;
43435;SDS011;36399;51.444;-2.018;2022-07-10T14:56:23;1.55;;;0.80;;
43435;SDS011;36399;51.444;-2.018;2022-07-10T14:58:49;1.90;;;0.80;;
43435;SDS011;36399;51.444;-2.018;2022-07-10T15:01:15;2.88;;;0.90;;
43435;SDS011;36399;51.444;-2.018;2022-07-10T15:03:42;1.23;;;0.70;;
43435;SDS011;36399;51.444;-2.018;2022-07-10T15:06:08;1.38;;;0.75;;
43435;SDS011;36399;51.444;-2.018;2022-07-10T15:08:34;1.38;;;0.90;;
43435;SDS011;36399;51.444;-2.018;2022-07-10T15:11:01;3.28;;;0.80;;
43435;SDS011;36399;51.444;-2.018;2022-07-10T15:13:28;1.58;;;0.90;;
43435;SDS011;36399;51.444;-2.018;2022-07-10T15:15:54;1.42;;;0.70;;
43435;SDS011;36399;51.444;-2.018;2022-07-10T15:18:20;1.75;;;0.70;;
43435;SDS011;36399;51.444;-2.018;2022-07-10T15:20:47;1.20;;;0.85;;
43435;SDS011;36399;51.444;-2.018;2022-07-10T15:23:13;1.50;;;1.00;;
43435;SDS011;36399;51.444;-2.018;2022-07-10T15:25:40;2.13;;;0.80;;
43435;SDS011;36399;51.444;-2.018;2022-07-10T15:28:07;1.27;;;0.73;;
43435;SDS011;36399;51.444;-2.018;2022-07-10T15:30:37;1.42;;;0.75;;
43435;SDS011;36399;51.444;-2.018;2022-07-10T15:33:05;1.70;;;0.75;;
43435;SDS011;36399;51.444;-2.018;2022-07-10T15:35:32;2.13;;;0.68;;
43435;SDS011;36399;51.444;-2.018;2022-07-10T15:37:58;1.15;;;0.73;;
43435;SDS011;36399;51.444;-2.018;2022-07-10T15:40:25;1.08;;;0.50;;
43435;SDS011;36399;51.444;-2.018;2022-07-10T15:42:52;1.33;;;0.75;;